sensor_id;sensor_type;location;lat;lon;timestamp;P1;durP1;ratioP1;P2;durP2;ratioP2
13057;SDS011;6595;49.578;11.012;2024-01-30T00:00:23;9.7;;;5.2;;
13057;SDS011;6595;49.578;11.012;2024-01-30T00:02:24;9.7;;;5.2;;
13057;SDS011;6595;49.578;11.012;2024-01-30T00:04:23;9.8;;;4.7;;
13057;SDS011;6595;49.578;11.012;2024-01-30T00:06:23;9.6;;;5.1;;
13057;SDS011;6595;49.578;11.012;2024-01-30T00:08:24;11.4;;;5.5;;
13057;SDS011;6595;49.578;11.012;2024-01-30T00:10:23;11.4;;;5.5;;
13057;SDS011;6595;49.578;11.012;2024-01-30T00:12:23;8.8;;;4.8;;
13057;SDS011;6595;49.578;11.012;2024-01-30T00:14:23;8.8;;;4.8;;
13057;SDS011;6595;49.578;11.012;2024-01-30T00:16:24;10.5;;;4.6;;
13057;SDS011;6595;49.578;11.012;2024-01-30T00:18:23;9.0;;;4.8;;
13057;SDS011;6595;49.578;11.012;2024-01-30T00:20:23;9.0;;;4.8;;
13057;SDS011;6595;49.578;11.012;2024-01-30T00:22:23;10.4;;;5.2;;
13057;SDS011;6595;49.578;11.012;2024-01-30T00:24:23;8.9;;;4.7;;
13057;SDS011;6595;49.578;11.012;2024-01-30T00:26:23;8.8;;;4.8;;
13057;SDS011;6595;49.578;11.012;2024-01-30T00:28:24;7.8;;;4.6;;
13057;SDS011;6595;49.578;11.012;2024-01-30T00:30:23;8.0;;;4.8;;
13057;SDS011;6595;49.578;11.012;2024-01-30T00:32:23;8.0;;;4.8;;
13057;SDS011;6595;49.578;11.012;2024-01-30T00:34:23;9.6;;;4.7;;
13057;SDS011;6595;49.578;11.012;2024-01-30T00:36:23;10.7;;;5.4;;
13057;SDS011;6595;49.578;11.012;2024-01-30T00:38:23;9.4;;;5.1;;
13057;SDS011;6595;49.578;11.012;2024-01-30T00:40:24;9.4;;;5.1;;
13057;SDS011;6595;49.578;11.012;2024-01-30T00:42:23;9.9;;;5.1;;
13057;SDS011;6595;49.578;11.012;2024-01-30T00:44:23;8.1;;;5.1;;
13057;SDS011;6595;49.578;11.012;2024-01-30T00:46:23;10.2;;;5.4;;
13057;SDS011;6595;49.578;11.012;2024-01-30T00:48:24;10.2;;;5.4;;
13057;SDS011;6595;49.578;11.012;2024-01-30T00:50:23;9.1;;;5.7;;
13057;SDS011;6595;49.578;11.012;2024-01-30T00:52:23;8.1;;;5.2;;
13057;SDS011;6595;49.578;11.012;2024-01-30T00:54:24;9.2;;;5.3;;
13057;SDS011;6595;49.578;11.012;2024-01-30T00:56:23;9.2;;;5.3;;
13057;SDS011;6595;49.578;11.012;2024-01-30T00:58:23;9.4;;;4.8;;
13057;SDS011;6595;49.578;11.012;2024-01-30T01:00:23;9.4;;;4.8;;
13057;SDS011;6595;49.578;11.012;2024-01-30T01:02:24;9.1;;;5.0;;
13057;SDS011;6595;49.578;11.012;2024-01-30T01:04:24;10.1;;;5.0;;
13057;SDS011;6595;49.578;11.012;2024-01-30T01:06:23;10.1;;;5.0;;
13057;SDS011;6595;49.578;11.012;2024-01-30T01:08:23;7.7;;;4.9;;
13057;SDS011;6595;49.578;11.012;2024-01-30T01:10:23;7.7;;;4.9;;
13057;SDS011;6595;49.578;11.012;2024-01-30T01:12:23;8.8;;;5.1;;
13057;SDS011;6595;49.578;11.012;2024-01-30T01:14:24;7.9;;;4.9;;
13057;SDS011;6595;49.578;11.012;2024-01-30T01:16:23;10.1;;;5.2;;
13057;SDS011;6595;49.578;11.012;2024-01-30T01:18:23;10.1;;;5.2;;
13057;SDS011;6595;49.578;11.012;2024-01-30T01:20:23;9.7;;;4.9;;
13057;SDS011;6595;49.578;11.012;2024-01-30T01:22:24;10.7;;;5.6;;
13057;SDS011;6595;49.578;11.012;2024-01-30T01:24:23;10.0;;;5.5;;
13057;SDS011;6595;49.578;11.012;2024-01-30T01:26:23;10.3;;;5.5;;
13057;SDS011;6595;49.578;11.012;2024-01-30T01:28:23;10.3;;;5.5;;
13057;SDS011;6595;49.578;11.012;2024-01-30T01:30:23;8.6;;;5.1;;
13057;SDS011;6595;49.578;11.012;2024-01-30T01:32:24;11.0;;;5.5;;
13057;SDS011;6595;49.578;11.012;2024-01-30T01:34:24;11.4;;;5.3;;
13057;SDS011;6595;49.578;11.012;2024-01-30T01:36:24;11.4;;;5.3;;
13057;SDS011;6595;49.578;11.012;2024-01-30T01:38:23;11.4;;;5.3;;
13057;SDS011;6595;49.578;11.012;2024-01-30T01:40:23;11.7;;;5.1;;
13057;SDS011;6595;49.578;11.012;2024-01-30T01:42:24;9.9;;;5.3;;
13057;SDS011;6595;49.578;11.012;2024-01-30T01:44:24;10.0;;;5.3;;
13057;SDS011;6595;49.578;11.012;2024-01-30T01:46:26;10.0;;;5.3;;
13057;SDS011;6595;49.578;11.012;2024-01-30T01:48:23;10.7;;;5.2;;
13057;SDS011;6595;49.578;11.012;2024-01-30T01:50:23;10.7;;;5.2;;
13057;SDS011;6595;49.578;11.012;2024-01-30T01:52:23;11.4;;;5.2;;
13057;SDS011;6595;49.578;11.012;2024-01-30T01:54:24;11.5;;;5.9;;
13057;SDS011;6595;49.578;11.012;2024-01-30T01:56:23;10.0;;;6.2;;
13057;SDS011;6595;49.578;11.012;2024-01-30T01:58:23;10.0;;;6.2;;
13057;SDS011;6595;49.578;11.012;2024-01-30T02:00:23;9.9;;;5.4;;
13057;SDS011;6595;49.578;11.012;2024-01-30T02:02:23;10.5;;;5.6;;
13057;SDS011;6595;49.578;11.012;2024-01-30T02:04:24;10.7;;;5.5;;
13057;SDS011;6595;49.578;11.012;2024-01-30T02:06:24;10.7;;;5.5;;
13057;SDS011;6595;49.578;11.012;2024-01-30T02:08:24;10.6;;;5.7;;
13057;SDS011;6595;49.578;11.012;2024-01-30T02:10:23;9.5;;;5.5;;
13057;SDS011;6595;49.578;11.012;2024-01-30T02:12:23;9.4;;;4.9;;
13057;SDS011;6595;49.578;11.012;2024-01-30T02:14:24;9.4;;;4.9;;
13057;SDS011;6595;49.578;11.012;2024-01-30T02:16:24;10.5;;;5.3;;
13057;SDS011;6595;49.578;11.012;2024-01-30T02:18:23;9.5;;;5.2;;
13057;SDS011;6595;49.578;11.012;2024-01-30T02:20:23;10.6;;;5.6;;
13057;SDS011;6595;49.578;11.012;2024-01-30T02:22:23;8.3;;;5.5;;
13057;SDS011;6595;49.578;11.012;2024-01-30T02:24:24;8.3;;;5.5;;
13057;SDS011;6595;49.578;11.012;2024-01-30T02:26:23;9.6;;;5.3;;
13057;SDS011;6595;49.578;11.012;2024-01-30T02:28:23;11.4;;;5.5;;
13057;SDS011;6595;49.578;11.012;2024-01-30T02:30:24;9.4;;;5.3;;
13057;SDS011;6595;49.578;11.012;2024-01-30T02:32:24;8.8;;;5.7;;
13057;SDS011;6595;49.578;11.012;2024-01-30T02:34:24;8.8;;;5.7;;
13057;SDS011;6595;49.578;11.012;2024-01-30T02:36:23;10.3;;;5.7;;
13057;SDS011;6595;49.578;11.012;2024-01-30T02:38:24;8.8;;;4.9;;
13057;SDS011;6595;49.578;11.012;2024-01-30T02:40:23;11.7;;;5.5;;
13057;SDS011;6595;49.578;11.012;2024-01-30T02:42:24;11.0;;;5.2;;
13057;SDS011;6595;49.578;11.012;2024-01-30T02:44:23;11.6;;;5.3;;
13057;SDS011;6595;49.578;11.012;2024-01-30T02:46:23;11.6;;;5.3;;
13057;SDS011;6595;49.578;11.012;2024-01-30T02:48:24;10.9;;;4.7;;
13057;SDS011;6595;49.578;11.012;2024-01-30T02:50:23;8.8;;;5.1;;
13057;SDS011;6595;49.578;11.012;2024-01-30T02:52:23;10.8;;;5.3;;
13057;SDS011;6595;49.578;11.012;2024-01-30T02:54:23;10.8;;;5.3;;
13057;SDS011;6595;49.578;11.012;2024-01-30T02:56:24;7.6;;;5.2;;
13057;SDS011;6595;49.578;11.012;2024-01-30T02:58:23;11.1;;;5.2;;
13057;SDS011;6595;49.578;11.012;2024-01-30T03:00:23;11.1;;;5.2;;
13057;SDS011;6595;49.578;11.012;2024-01-30T03:02:24;8.9;;;5.3;;
13057;SDS011;6595;49.578;11.012;2024-01-30T03:04:24;8.9;;;5.3;;
13057;SDS011;6595;49.578;11.012;2024-01-30T03:06:23;9.6;;;5.2;;
13057;SDS011;6595;49.578;11.012;2024-01-30T03:08:23;9.5;;;4.6;;
13057;SDS011;6595;49.578;11.012;2024-01-30T03:10:23;10.4;;;5.2;;
13057;SDS011;6595;49.578;11.012;2024-01-30T03:12:24;10.4;;;5.2;;
13057;SDS011;6595;49.578;11.012;2024-01-30T03:14:23;10.9;;;5.4;;
13057;SDS011;6595;49.578;11.012;2024-01-30T03:16:23;10.9;;;5.4;;
13057;SDS011;6595;49.578;11.012;2024-01-30T03:18:23;9.1;;;5.0;;
13057;SDS011;6595;49.578;11.012;2024-01-30T03:20:24;9.5;;;5.4;;
13057;SDS011;6595;49.578;11.012;2024-01-30T03:22:23;9.5;;;5.4;;
13057;SDS011;6595;49.578;11.012;2024-01-30T03:24:23;9.5;;;5.1;;
13057;SDS011;6595;49.578;11.012;2024-01-30T03:26:23;9.5;;;5.1;;
13057;SDS011;6595;49.578;11.012;2024-01-30T03:28:23;10.9;;;5.1;;
13057;SDS011;6595;49.578;11.012;2024-01-30T03:30:23;10.9;;;5.1;;
13057;SDS011;6595;49.578;11.012;2024-01-30T03:32:23;12.5;;;5.0;;
13057;SDS011;6595;49.578;11.012;2024-01-30T03:34:23;10.6;;;5.0;;
13057;SDS011;6595;49.578;11.012;2024-01-30T03:36:24;8.7;;;5.0;;
13057;SDS011;6595;49.578;11.012;2024-01-30T03:38:24;7.4;;;4.5;;
13057;SDS011;6595;49.578;11.012;2024-01-30T03:40:23;8.0;;;4.9;;
13057;SDS011;6595;49.578;11.012;2024-01-30T03:42:23;8.7;;;4.9;;
13057;SDS011;6595;49.578;11.012;2024-01-30T03:44:24;8.7;;;4.9;;
13057;SDS011;6595;49.578;11.012;2024-01-30T03:46:23;10.7;;;5.2;;
13057;SDS011;6595;49.578;11.012;2024-01-30T03:48:24;8.0;;;4.8;;
13057;SDS011;6595;49.578;11.012;2024-01-30T03:50:24;8.9;;;5.2;;
13057;SDS011;6595;49.578;11.012;2024-01-30T03:52:23;10.1;;;5.4;;
13057;SDS011;6595;49.578;11.012;2024-01-30T03:54:23;10.1;;;5.4;;
13057;SDS011;6595;49.578;11.012;2024-01-30T03:56:24;10.7;;;5.0;;
13057;SDS011;6595;49.578;11.012;2024-01-30T03:58:23;8.0;;;4.7;;
13057;SDS011;6595;49.578;11.012;2024-01-30T04:00:23;8.0;;;4.7;;
13057;SDS011;6595;49.578;11.012;2024-01-30T04:02:23;10.9;;;4.8;;
13057;SDS011;6595;49.578;11.012;2024-01-30T04:04:23;9.1;;;5.1;;
13057;SDS011;6595;49.578;11.012;2024-01-30T04:06:23;11.0;;;5.6;;
13057;SDS011;6595;49.578;11.012;2024-01-30T04:08:24;10.6;;;5.2;;
13057;SDS011;6595;49.578;11.012;2024-01-30T04:10:23;10.6;;;5.2;;
13057;SDS011;6595;49.578;11.012;2024-01-30T04:12:23;10.2;;;5.4;;
13057;SDS011;6595;49.578;11.012;2024-01-30T04:14:23;10.2;;;5.4;;
13057;SDS011;6595;49.578;11.012;2024-01-30T04:16:23;8.2;;;5.0;;
13057;SDS011;6595;49.578;11.012;2024-01-30T04:18:23;9.6;;;5.4;;
13057;SDS011;6595;49.578;11.012;2024-01-30T04:20:23;9.6;;;5.4;;
13057;SDS011;6595;49.578;11.012;2024-01-30T04:22:24;9.5;;;5.2;;
13057;SDS011;6595;49.578;11.012;2024-01-30T04:24:23;7.3;;;5.2;;
13057;SDS011;6595;49.578;11.012;2024-01-30T04:26:23;10.1;;;5.6;;
13057;SDS011;6595;49.578;11.012;2024-01-30T04:28:24;10.0;;;5.5;;
13057;SDS011;6595;49.578;11.012;2024-01-30T04:30:23;10.0;;;5.5;;
13057;SDS011;6595;49.578;11.012;2024-01-30T04:32:23;10.0;;;5.2;;
13057;SDS011;6595;49.578;11.012;2024-01-30T04:34:23;12.0;;;5.3;;
13057;SDS011;6595;49.578;11.012;2024-01-30T04:36:23;10.3;;;5.1;;
13057;SDS011;6595;49.578;11.012;2024-01-30T04:38:23;9.5;;;5.4;;
13057;SDS011;6595;49.578;11.012;2024-01-30T04:40:24;9.5;;;5.4;;
13057;SDS011;6595;49.578;11.012;2024-01-30T04:42:24;8.2;;;4.9;;
13057;SDS011;6595;49.578;11.012;2024-01-30T04:44:24;11.2;;;5.7;;
13057;SDS011;6595;49.578;11.012;2024-01-30T04:46:23;10.1;;;5.1;;
13057;SDS011;6595;49.578;11.012;2024-01-30T04:48:23;10.2;;;5.4;;
13057;SDS011;6595;49.578;11.012;2024-01-30T04:50:23;10.2;;;5.4;;
13057;SDS011;6595;49.578;11.012;2024-01-30T04:52:23;8.3;;;5.1;;
13057;SDS011;6595;49.578;11.012;2024-01-30T04:54:23;9.5;;;5.1;;
13057;SDS011;6595;49.578;11.012;2024-01-30T04:56:24;10.7;;;4.8;;
13057;SDS011;6595;49.578;11.012;2024-01-30T04:58:23;10.7;;;4.8;;
13057;SDS011;6595;49.578;11.012;2024-01-30T05:00:23;10.7;;;4.8;;
13057;SDS011;6595;49.578;11.012;2024-01-30T05:02:23;11.4;;;4.8;;
13057;SDS011;6595;49.578;11.012;2024-01-30T05:04:24;8.6;;;5.0;;
13057;SDS011;6595;49.578;11.012;2024-01-30T05:06:24;9.9;;;4.7;;
13057;SDS011;6595;49.578;11.012;2024-01-30T05:08:23;9.4;;;4.8;;
13057;SDS011;6595;49.578;11.012;2024-01-30T05:10:23;9.4;;;4.8;;
13057;SDS011;6595;49.578;11.012;2024-01-30T05:12:23;10.4;;;5.1;;
13057;SDS011;6595;49.578;11.012;2024-01-30T05:14:24;9.0;;;4.9;;
13057;SDS011;6595;49.578;11.012;2024-01-30T05:16:23;9.5;;;4.8;;
13057;SDS011;6595;49.578;11.012;2024-01-30T05:18:23;9.5;;;4.8;;
13057;SDS011;6595;49.578;11.012;2024-01-30T05:20:23;9.4;;;4.9;;
13057;SDS011;6595;49.578;11.012;2024-01-30T05:22:23;8.6;;;4.6;;
13057;SDS011;6595;49.578;11.012;2024-01-30T05:24:24;10.3;;;5.2;;
13057;SDS011;6595;49.578;11.012;2024-01-30T05:26:23;9.5;;;5.1;;
13057;SDS011;6595;49.578;11.012;2024-01-30T05:28:23;9.5;;;5.1;;
13057;SDS011;6595;49.578;11.012;2024-01-30T05:30:23;9.0;;;4.5;;
13057;SDS011;6595;49.578;11.012;2024-01-30T05:32:23;9.8;;;5.1;;
13057;SDS011;6595;49.578;11.012;2024-01-30T05:34:23;9.1;;;4.9;;
13057;SDS011;6595;49.578;11.012;2024-01-30T05:36:24;8.6;;;4.6;;
13057;SDS011;6595;49.578;11.012;2024-01-30T05:38:23;8.6;;;4.6;;
13057;SDS011;6595;49.578;11.012;2024-01-30T05:40:23;9.7;;;4.7;;
13057;SDS011;6595;49.578;11.012;2024-01-30T05:42:23;9.7;;;5.1;;
13057;SDS011;6595;49.578;11.012;2024-01-30T05:44:24;9.2;;;4.6;;
13057;SDS011;6595;49.578;11.012;2024-01-30T05:46:23;9.5;;;4.4;;
13057;SDS011;6595;49.578;11.012;2024-01-30T05:48:23;9.5;;;4.4;;
13057;SDS011;6595;49.578;11.012;2024-01-30T05:50:23;8.4;;;5.2;;
13057;SDS011;6595;49.578;11.012;2024-01-30T05:52:23;8.2;;;4.9;;
13057;SDS011;6595;49.578;11.012;2024-01-30T05:54:24;11.2;;;4.9;;
13057;SDS011;6595;49.578;11.012;2024-01-30T05:56:24;8.4;;;4.7;;
13057;SDS011;6595;49.578;11.012;2024-01-30T05:58:23;8.4;;;4.7;;
13057;SDS011;6595;49.578;11.012;2024-01-30T06:00:23;10.6;;;4.9;;
13057;SDS011;6595;49.578;11.012;2024-01-30T06:02:24;8.3;;;4.9;;
13057;SDS011;6595;49.578;11.012;2024-01-30T06:04:23;10.9;;;5.1;;
13057;SDS011;6595;49.578;11.012;2024-01-30T06:06:23;10.9;;;5.1;;
13057;SDS011;6595;49.578;11.012;2024-01-30T06:08:23;10.5;;;5.3;;
13057;SDS011;6595;49.578;11.012;2024-01-30T06:10:23;13.5;;;6.1;;
13057;SDS011;6595;49.578;11.012;2024-01-30T06:12:23;10.7;;;5.6;;
13057;SDS011;6595;49.578;11.012;2024-01-30T06:14:24;12.5;;;6.0;;
13057;SDS011;6595;49.578;11.012;2024-01-30T06:16:23;12.5;;;6.0;;
13057;SDS011;6595;49.578;11.012;2024-01-30T06:18:23;12.3;;;6.2;;
13057;SDS011;6595;49.578;11.012;2024-01-30T06:20:23;15.7;;;6.6;;
13057;SDS011;6595;49.578;11.012;2024-01-30T06:22:23;15.7;;;6.6;;
13057;SDS011;6595;49.578;11.012;2024-01-30T06:24:24;12.1;;;6.2;;
13057;SDS011;6595;49.578;11.012;2024-01-30T06:26:23;12.1;;;6.2;;
13057;SDS011;6595;49.578;11.012;2024-01-30T06:28:23;13.9;;;6.1;;
13057;SDS011;6595;49.578;11.012;2024-01-30T06:30:23;12.6;;;5.8;;
13057;SDS011;6595;49.578;11.012;2024-01-30T06:32:23;11.4;;;5.6;;
13057;SDS011;6595;49.578;11.012;2024-01-30T06:34:24;12.3;;;5.7;;
13057;SDS011;6595;49.578;11.012;2024-01-30T06:36:24;12.3;;;5.7;;
13057;SDS011;6595;49.578;11.012;2024-01-30T06:38:24;13.3;;;7.4;;
13057;SDS011;6595;49.578;11.012;2024-01-30T06:40:23;11.1;;;6.0;;
13057;SDS011;6595;49.578;11.012;2024-01-30T06:42:23;11.1;;;6.0;;
13057;SDS011;6595;49.578;11.012;2024-01-30T06:44:23;9.2;;;5.1;;
13057;SDS011;6595;49.578;11.012;2024-01-30T06:46:24;9.2;;;4.7;;
13057;SDS011;6595;49.578;11.012;2024-01-30T06:48:24;9.2;;;4.7;;
13057;SDS011;6595;49.578;11.012;2024-01-30T06:50:23;10.5;;;5.1;;
13057;SDS011;6595;49.578;11.012;2024-01-30T06:52:23;10.5;;;5.1;;
13057;SDS011;6595;49.578;11.012;2024-01-30T06:54:23;9.9;;;5.2;;
13057;SDS011;6595;49.578;11.012;2024-01-30T06:56:23;7.5;;;4.6;;
13057;SDS011;6595;49.578;11.012;2024-01-30T06:58:24;12.8;;;6.7;;
13057;SDS011;6595;49.578;11.012;2024-01-30T07:00:23;12.1;;;5.9;;
13057;SDS011;6595;49.578;11.012;2024-01-30T07:02:23;11.7;;;5.7;;
13057;SDS011;6595;49.578;11.012;2024-01-30T07:04:23;11.7;;;5.7;;
13057;SDS011;6595;49.578;11.012;2024-01-30T07:06:23;11.9;;;5.4;;
13057;SDS011;6595;49.578;11.012;2024-01-30T07:08:23;10.7;;;6.1;;
13057;SDS011;6595;49.578;11.012;2024-01-30T07:10:23;10.7;;;6.1;;
13057;SDS011;6595;49.578;11.012;2024-01-30T07:12:24;10.7;;;5.7;;
13057;SDS011;6595;49.578;11.012;2024-01-30T07:14:24;10.7;;;5.7;;
13057;SDS011;6595;49.578;11.012;2024-01-30T07:16:23;10.4;;;5.5;;
13057;SDS011;6595;49.578;11.012;2024-01-30T07:18:23;8.7;;;5.2;;
13057;SDS011;6595;49.578;11.012;2024-01-30T07:20:23;10.8;;;5.5;;
13057;SDS011;6595;49.578;11.012;2024-01-30T07:22:23;10.8;;;5.5;;
13057;SDS011;6595;49.578;11.012;2024-01-30T07:24:23;12.0;;;5.7;;
13057;SDS011;6595;49.578;11.012;2024-01-30T07:26:23;11.2;;;5.6;;
13057;SDS011;6595;49.578;11.012;2024-01-30T07:28:24;12.4;;;5.6;;
13057;SDS011;6595;49.578;11.012;2024-01-30T07:30:23;12.1;;;5.9;;
13057;SDS011;6595;49.578;11.012;2024-01-30T07:32:23;12.1;;;5.9;;
13057;SDS011;6595;49.578;11.012;2024-01-30T07:34:23;13.0;;;6.2;;
13057;SDS011;6595;49.578;11.012;2024-01-30T07:36:23;12.8;;;6.0;;
13057;SDS011;6595;49.578;11.012;2024-01-30T07:38:24;12.8;;;6.2;;
13057;SDS011;6595;49.578;11.012;2024-01-30T07:40:23;11.4;;;6.2;;
13057;SDS011;6595;49.578;11.012;2024-01-30T07:42:23;11.7;;;6.2;;
13057;SDS011;6595;49.578;11.012;2024-01-30T07:44:23;11.7;;;6.2;;
13057;SDS011;6595;49.578;11.012;2024-01-30T07:46:23;11.9;;;6.5;;
13057;SDS011;6595;49.578;11.012;2024-01-30T07:48:24;11.9;;;6.5;;
13057;SDS011;6595;49.578;11.012;2024-01-30T07:50:23;12.4;;;5.9;;
13057;SDS011;6595;49.578;11.012;2024-01-30T07:52:24;13.2;;;6.4;;
13057;SDS011;6595;49.578;11.012;2024-01-30T07:54:23;13.2;;;6.4;;
13057;SDS011;6595;49.578;11.012;2024-01-30T07:56:23;12.5;;;5.8;;
13057;SDS011;6595;49.578;11.012;2024-01-30T07:58:23;15.0;;;6.4;;
13057;SDS011;6595;49.578;11.012;2024-01-30T08:00:24;11.8;;;5.9;;
13057;SDS011;6595;49.578;11.012;2024-01-30T08:02:24;11.8;;;5.9;;
13057;SDS011;6595;49.578;11.012;2024-01-30T08:04:24;13.2;;;6.6;;
13057;SDS011;6595;49.578;11.012;2024-01-30T08:06:23;15.1;;;6.7;;
13057;SDS011;6595;49.578;11.012;2024-01-30T08:08:23;12.3;;;6.7;;
13057;SDS011;6595;49.578;11.012;2024-01-30T08:10:23;14.0;;;6.2;;
13057;SDS011;6595;49.578;11.012;2024-01-30T08:12:24;14.0;;;6.2;;
13057;SDS011;6595;49.578;11.012;2024-01-30T08:14:23;14.9;;;7.0;;
13057;SDS011;6595;49.578;11.012;2024-01-30T08:16:23;14.5;;;6.8;;
13057;SDS011;6595;49.578;11.012;2024-01-30T08:18:23;10.8;;;6.2;;
13057;SDS011;6595;49.578;11.012;2024-01-30T08:20:23;10.8;;;6.2;;
13057;SDS011;6595;49.578;11.012;2024-01-30T08:22:24;15.4;;;6.2;;
13057;SDS011;6595;49.578;11.012;2024-01-30T08:24:23;15.4;;;6.2;;
13057;SDS011;6595;49.578;11.012;2024-01-30T08:26:23;11.1;;;6.1;;
13057;SDS011;6595;49.578;11.012;2024-01-30T08:28:23;11.1;;;6.1;;
13057;SDS011;6595;49.578;11.012;2024-01-30T08:30:23;13.3;;;6.1;;
13057;SDS011;6595;49.578;11.012;2024-01-30T08:32:23;14.9;;;6.8;;
13057;SDS011;6595;49.578;11.012;2024-01-30T08:34:23;12.2;;;6.9;;
13057;SDS011;6595;49.578;11.012;2024-01-30T08:36:23;15.2;;;7.9;;
13057;SDS011;6595;49.578;11.012;2024-01-30T08:38:24;18.3;;;9.2;;
13057;SDS011;6595;49.578;11.012;2024-01-30T08:40:23;18.3;;;9.2;;
13057;SDS011;6595;49.578;11.012;2024-01-30T08:42:23;17.8;;;8.6;;
13057;SDS011;6595;49.578;11.012;2024-01-30T08:44:23;17.2;;;8.5;;
13057;SDS011;6595;49.578;11.012;2024-01-30T08:46:23;17.2;;;9.0;;
13057;SDS011;6595;49.578;11.012;2024-01-30T08:48:24;17.2;;;9.0;;
13057;SDS011;6595;49.578;11.012;2024-01-30T08:50:23;15.1;;;8.5;;
13057;SDS011;6595;49.578;11.012;2024-01-30T08:52:24;17.3;;;8.9;;
13057;SDS011;6595;49.578;11.012;2024-01-30T08:54:23;17.3;;;8.9;;
13057;SDS011;6595;49.578;11.012;2024-01-30T08:56:24;14.5;;;8.3;;
13057;SDS011;6595;49.578;11.012;2024-01-30T08:58:23;15.4;;;8.1;;
13057;SDS011;6595;49.578;11.012;2024-01-30T09:00:23;20.4;;;8.6;;
13057;SDS011;6595;49.578;11.012;2024-01-30T09:02:23;24.7;;;8.7;;
13057;SDS011;6595;49.578;11.012;2024-01-30T09:04:23;24.4;;;9.7;;
13057;SDS011;6595;49.578;11.012;2024-01-30T09:06:23;24.4;;;9.7;;
13057;SDS011;6595;49.578;11.012;2024-01-30T09:08:23;20.8;;;9.2;;
13057;SDS011;6595;49.578;11.012;2024-01-30T09:10:23;17.6;;;8.9;;
13057;SDS011;6595;49.578;11.012;2024-01-30T09:12:23;18.3;;;9.5;;
13057;SDS011;6595;49.578;11.012;2024-01-30T09:14:24;17.1;;;9.3;;
13057;SDS011;6595;49.578;11.012;2024-01-30T09:16:24;19.0;;;10.7;;
13057;SDS011;6595;49.578;11.012;2024-01-30T09:18:23;19.0;;;10.7;;
13057;SDS011;6595;49.578;11.012;2024-01-30T09:20:23;18.0;;;8.9;;
13057;SDS011;6595;49.578;11.012;2024-01-30T09:22:23;21.4;;;9.3;;
13057;SDS011;6595;49.578;11.012;2024-01-30T09:24:24;22.1;;;10.4;;
13057;SDS011;6595;49.578;11.012;2024-01-30T09:26:23;20.9;;;10.5;;
13057;SDS011;6595;49.578;11.012;2024-01-30T09:28:24;18.7;;;10.1;;
13057;SDS011;6595;49.578;11.012;2024-01-30T09:30:23;18.7;;;10.1;;
13057;SDS011;6595;49.578;11.012;2024-01-30T09:32:23;21.3;;;10.5;;
13057;SDS011;6595;49.578;11.012;2024-01-30T09:34:24;21.3;;;10.5;;
13057;SDS011;6595;49.578;11.012;2024-01-30T09:36:24;20.6;;;10.2;;
13057;SDS011;6595;49.578;11.012;2024-01-30T09:38:24;17.8;;;9.5;;
13057;SDS011;6595;49.578;11.012;2024-01-30T09:40:24;17.8;;;9.5;;
13057;SDS011;6595;49.578;11.012;2024-01-30T09:42:26;17.7;;;10.1;;
13057;SDS011;6595;49.578;11.012;2024-01-30T09:44:23;17.7;;;10.1;;
13057;SDS011;6595;49.578;11.012;2024-01-30T09:46:23;19.1;;;10.1;;
13057;SDS011;6595;49.578;11.012;2024-01-30T09:48:23;19.1;;;10.1;;
13057;SDS011;6595;49.578;11.012;2024-01-30T09:50:23;19.0;;;9.8;;
13057;SDS011;6595;49.578;11.012;2024-01-30T09:52:24;18.7;;;9.6;;
13057;SDS011;6595;49.578;11.012;2024-01-30T09:54:23;21.3;;;10.4;;
13057;SDS011;6595;49.578;11.012;2024-01-30T09:56:23;21.3;;;10.4;;
13057;SDS011;6595;49.578;11.012;2024-01-30T09:58:23;18.2;;;10.4;;
13057;SDS011;6595;49.578;11.012;2024-01-30T10:00:23;22.6;;;10.2;;
13057;SDS011;6595;49.578;11.012;2024-01-30T10:02:23;18.4;;;10.0;;
13057;SDS011;6595;49.578;11.012;2024-01-30T10:04:24;19.6;;;10.2;;
13057;SDS011;6595;49.578;11.012;2024-01-30T10:06:24;19.6;;;10.2;;
13057;SDS011;6595;49.578;11.012;2024-01-30T10:08:24;21.9;;;10.2;;
13057;SDS011;6595;49.578;11.012;2024-01-30T10:10:24;21.9;;;10.3;;
13057;SDS011;6595;49.578;11.012;2024-01-30T10:12:25;19.8;;;10.0;;
13057;SDS011;6595;49.578;11.012;2024-01-30T10:14:23;22.8;;;10.4;;
13057;SDS011;6595;49.578;11.012;2024-01-30T10:16:23;22.8;;;10.4;;
13057;SDS011;6595;49.578;11.012;2024-01-30T10:18:23;19.8;;;10.5;;
13057;SDS011;6595;49.578;11.012;2024-01-30T10:20:24;18.4;;;9.9;;
13057;SDS011;6595;49.578;11.012;2024-01-30T10:22:23;18.5;;;10.1;;
13057;SDS011;6595;49.578;11.012;2024-01-30T10:24:24;22.1;;;11.3;;
13057;SDS011;6595;49.578;11.012;2024-01-30T10:26:24;22.1;;;11.3;;
13057;SDS011;6595;49.578;11.012;2024-01-30T10:28:26;18.9;;;10.6;;
13057;SDS011;6595;49.578;11.012;2024-01-30T10:30:24;19.4;;;9.8;;
13057;SDS011;6595;49.578;11.012;2024-01-30T10:32:23;19.4;;;10.2;;
13057;SDS011;6595;49.578;11.012;2024-01-30T10:34:23;18.5;;;10.1;;
13057;SDS011;6595;49.578;11.012;2024-01-30T10:36:24;18.5;;;10.1;;
13057;SDS011;6595;49.578;11.012;2024-01-30T10:38:23;19.4;;;10.2;;
13057;SDS011;6595;49.578;11.012;2024-01-30T10:40:25;20.4;;;9.9;;
13057;SDS011;6595;49.578;11.012;2024-01-30T10:42:25;20.4;;;9.9;;
13057;SDS011;6595;49.578;11.012;2024-01-30T10:44:23;18.4;;;9.5;;
13057;SDS011;6595;49.578;11.012;2024-01-30T10:46:24;18.4;;;9.5;;
13057;SDS011;6595;49.578;11.012;2024-01-30T10:48:24;22.7;;;11.0;;
13057;SDS011;6595;49.578;11.012;2024-01-30T10:50:23;21.1;;;11.0;;
13057;SDS011;6595;49.578;11.012;2024-01-30T10:52:24;20.5;;;9.5;;
13057;SDS011;6595;49.578;11.012;2024-01-30T10:54:23;20.5;;;9.5;;
13057;SDS011;6595;49.578;11.012;2024-01-30T10:56:23;19.5;;;10.4;;
13057;SDS011;6595;49.578;11.012;2024-01-30T10:58:23;23.6;;;10.2;;
13057;SDS011;6595;49.578;11.012;2024-01-30T11:00:24;21.4;;;10.0;;
13057;SDS011;6595;49.578;11.012;2024-01-30T11:02:23;20.0;;;10.0;;
13057;SDS011;6595;49.578;11.012;2024-01-30T11:04:23;21.7;;;10.2;;
13057;SDS011;6595;49.578;11.012;2024-01-30T11:06:23;21.7;;;10.2;;
13057;SDS011;6595;49.578;11.012;2024-01-30T11:08:23;19.9;;;10.4;;
13057;SDS011;6595;49.578;11.012;2024-01-30T11:10:24;19.9;;;9.7;;
13057;SDS011;6595;49.578;11.012;2024-01-30T11:12:24;19.7;;;10.2;;
13057;SDS011;6595;49.578;11.012;2024-01-30T11:14:23;19.7;;;10.2;;
13057;SDS011;6595;49.578;11.012;2024-01-30T11:16:30;20.7;;;9.8;;
13057;SDS011;6595;49.578;11.012;2024-01-30T11:18:24;19.4;;;10.2;;
13057;SDS011;6595;49.578;11.012;2024-01-30T11:20:25;23.0;;;10.8;;
13057;SDS011;6595;49.578;11.012;2024-01-30T11:22:23;18.8;;;10.6;;
13057;SDS011;6595;49.578;11.012;2024-01-30T11:24:23;18.8;;;10.6;;
13057;SDS011;6595;49.578;11.012;2024-01-30T11:26:24;20.9;;;10.5;;
13057;SDS011;6595;49.578;11.012;2024-01-30T11:28:23;23.4;;;10.7;;
13057;SDS011;6595;49.578;11.012;2024-01-30T11:30:24;21.0;;;10.5;;
13057;SDS011;6595;49.578;11.012;2024-01-30T11:32:23;21.0;;;10.5;;
13057;SDS011;6595;49.578;11.012;2024-01-30T11:34:23;20.0;;;10.4;;
13057;SDS011;6595;49.578;11.012;2024-01-30T11:36:25;22.4;;;10.7;;
13057;SDS011;6595;49.578;11.012;2024-01-30T11:38:23;19.8;;;10.4;;
13057;SDS011;6595;49.578;11.012;2024-01-30T11:40:23;18.6;;;9.8;;
13057;SDS011;6595;49.578;11.012;2024-01-30T11:42:24;18.6;;;9.8;;
13057;SDS011;6595;49.578;11.012;2024-01-30T11:44:23;18.6;;;10.2;;
13057;SDS011;6595;49.578;11.012;2024-01-30T11:46:24;18.8;;;10.4;;
13057;SDS011;6595;49.578;11.012;2024-01-30T11:48:23;18.8;;;10.0;;
13057;SDS011;6595;49.578;11.012;2024-01-30T11:50:24;18.8;;;10.0;;
13057;SDS011;6595;49.578;11.012;2024-01-30T11:52:23;18.8;;;10.0;;
13057;SDS011;6595;49.578;11.012;2024-01-30T11:54:23;18.1;;;10.9;;
13057;SDS011;6595;49.578;11.012;2024-01-30T11:56:23;18.1;;;10.9;;
13057;SDS011;6595;49.578;11.012;2024-01-30T11:58:24;19.6;;;10.6;;
13057;SDS011;6595;49.578;11.012;2024-01-30T12:00:24;19.6;;;10.6;;
13057;SDS011;6595;49.578;11.012;2024-01-30T12:02:23;17.6;;;10.2;;
13057;SDS011;6595;49.578;11.012;2024-01-30T12:04:23;17.2;;;10.3;;
13057;SDS011;6595;49.578;11.012;2024-01-30T12:06:23;21.0;;;9.7;;
13057;SDS011;6595;49.578;11.012;2024-01-30T12:08:23;21.0;;;9.7;;
13057;SDS011;6595;49.578;11.012;2024-01-30T12:10:23;18.3;;;10.4;;
13057;SDS011;6595;49.578;11.012;2024-01-30T12:12:24;18.6;;;10.0;;
13057;SDS011;6595;49.578;11.012;2024-01-30T12:14:23;18.6;;;10.0;;